sensor_id;sensor_type;location;lat;lon;timestamp;pressure;altitude;pressure_sealevel;temperature;humidity
17521;BME280;8878;-33.370;-70.552;2023-03-11T00:01:51;91855.63;;;29.99;31.95
17521;BME280;8878;-33.370;-70.552;2023-03-11T00:04:21;91849.81;;;29.90;31.83
17521;BME280;8878;-33.370;-70.552;2023-03-11T00:06:50;91852.94;;;29.95;32.06
17521;BME280;8878;-33.370;-70.552;2023-03-11T00:09:20;91852.56;;;29.83;32.52
17521;BME280;8878;-33.370;-70.552;2023-03-11T00:11:51;91850.66;;;29.62;32.95
17521;BME280;8878;-33.370;-70.552;2023-03-11T00:14:20;91857.22;;;29.65;33.11
17521;BME280;8878;-33.370;-70.552;2023-03-11T00:16:49;91858.03;;;29.54;33.29
17521;BME280;8878;-33.370;-70.552;2023-03-11T00:19:19;91860.34;;;29.42;33.86
17521;BME280;8878;-33.370;-70.552;2023-03-11T00:21:48;91863.44;;;29.23;33.98
17521;BME280;8878;-33.370;-70.552;2023-03-11T00:24:17;91866.16;;;29.12;34.85
17521;BME280;8878;-33.370;-70.552;2023-03-11T00:26:46;91876.63;;;29.10;34.60
17521;BME280;8878;-33.370;-70.552;2023-03-11T00:29:18;91875.84;;;29.06;34.52
17521;BME280;8878;-33.370;-70.552;2023-03-11T00:31:47;91874.28;;;29.01;34.53
17521;BME280;8878;-33.370;-70.552;2023-03-11T00:34:16;91875.06;;;29.09;33.91
17521;BME280;8878;-33.370;-70.552;2023-03-11T00:36:46;91879.75;;;29.12;33.33
17521;BME280;8878;-33.370;-70.552;2023-03-11T00:39:16;91880.50;;;29.16;32.64
17521;BME280;8878;-33.370;-70.552;2023-03-11T00:41:45;91879.72;;;28.98;34.37
17521;BME280;8878;-33.370;-70.552;2023-03-11T00:44:16;91900.63;;;28.79;35.26
17521;BME280;8878;-33.370;-70.552;2023-03-11T00:46:46;91901.34;;;28.69;34.95
17521;BME280;8878;-33.370;-70.552;2023-03-11T00:49:16;91898.63;;;28.69;35.20
17521;BME280;8878;-33.370;-70.552;2023-03-11T00:51:45;91902.88;;;28.67;35.06
17521;BME280;8878;-33.370;-70.552;2023-03-11T00:54:15;91905.19;;;28.65;34.78
17521;BME280;8878;-33.370;-70.552;2023-03-11T00:56:44;91903.59;;;28.50;35.17
17521;BME280;8878;-33.370;-70.552;2023-03-11T00:59:13;91914.38;;;28.32;35.96
17521;BME280;8878;-33.370;-70.552;2023-03-11T01:01:44;91922.09;;;28.23;36.26
17521;BME280;8878;-33.370;-70.552;2023-03-11T01:04:13;91926.00;;;28.29;36.27
17521;BME280;8878;-33.370;-70.552;2023-03-11T01:06:42;91919.03;;;28.35;36.01
17521;BME280;8878;-33.370;-70.552;2023-03-11T01:09:12;91933.03;;;28.44;35.29
17521;BME280;8878;-33.370;-70.552;2023-03-11T01:11:41;91933.31;;;28.21;35.50
17521;BME280;8878;-33.370;-70.552;2023-03-11T01:14:11;91931.31;;;28.11;36.17
17521;BME280;8878;-33.370;-70.552;2023-03-11T01:16:40;91928.94;;;28.02;36.72
17521;BME280;8878;-33.370;-70.552;2023-03-11T01:19:12;91932.44;;;28.06;35.99
17521;BME280;8878;-33.370;-70.552;2023-03-11T01:21:42;91928.97;;;28.10;35.92
17521;BME280;8878;-33.370;-70.552;2023-03-11T01:24:11;91934.88;;;28.19;35.66
17521;BME280;8878;-33.370;-70.552;2023-03-11T01:26:40;91923.09;;;28.00;36.14
17521;BME280;8878;-33.370;-70.552;2023-03-11T01:29:10;91930.81;;;27.95;36.00
17521;BME280;8878;-33.370;-70.552;2023-03-11T01:31:39;91928.44;;;27.86;36.92
17521;BME280;8878;-33.370;-70.552;2023-03-11T01:34:09;91924.53;;;27.80;37.31
17521;BME280;8878;-33.370;-70.552;2023-03-11T01:36:40;91922.19;;;27.75;37.37
17521;BME280;8878;-33.370;-70.552;2023-03-11T01:39:09;91919.41;;;27.68;37.14
17521;BME280;8878;-33.370;-70.552;2023-03-11T01:41:39;91910.47;;;27.60;36.80
17521;BME280;8878;-33.370;-70.552;2023-03-11T01:44:10;91910.72;;;27.48;37.00
17521;BME280;8878;-33.370;-70.552;2023-03-11T01:49:42;91906.66;;;27.24;37.55
17521;BME280;8878;-33.370;-70.552;2023-03-11T01:52:13;91904.31;;;27.19;37.86
17521;BME280;8878;-33.370;-70.552;2023-03-11T01:54:42;91904.31;;;27.19;37.30
17521;BME280;8878;-33.370;-70.552;2023-03-11T01:57:13;91908.97;;;27.22;37.03
17521;BME280;8878;-33.370;-70.552;2023-03-11T01:59:48;91907.41;;;27.21;37.18
17521;BME280;8878;-33.370;-70.552;2023-03-11T02:02:21;91900.50;;;27.27;37.27
17521;BME280;8878;-33.370;-70.552;2023-03-11T02:04:54;91895.16;;;27.35;37.50
17521;BME280;8878;-33.370;-70.552;2023-03-11T02:07:25;91895.09;;;27.27;36.52
17521;BME280;8878;-33.370;-70.552;2023-03-11T02:09:54;91892.44;;;27.35;38.10
17521;BME280;8878;-33.370;-70.552;2023-03-11T02:12:24;91886.59;;;27.33;37.77
17521;BME280;8878;-33.370;-70.552;2023-03-11T02:14:57;91882.66;;;27.23;38.24
17521;BME280;8878;-33.370;-70.552;2023-03-11T02:17:30;91881.09;;;27.18;38.76
17521;BME280;8878;-33.370;-70.552;2023-03-11T02:20:09;91878.72;;;27.13;38.66
17521;BME280;8878;-33.370;-70.552;2023-03-11T02:22:43;91880.25;;;27.11;38.89
17521;BME280;8878;-33.370;-70.552;2023-03-11T02:25:19;91885.59;;;27.04;38.62
17521;BME280;8878;-33.370;-70.552;2023-03-11T02:27:53;91883.38;;;26.79;38.99
17521;BME280;8878;-33.370;-70.552;2023-03-11T02:30:23;91880.66;;;26.76;38.94
17521;BME280;8878;-33.370;-70.552;2023-03-11T02:32:54;91884.56;;;26.78;38.65
17521;BME280;8878;-33.370;-70.552;2023-03-11T02:35:24;91880.66;;;26.76;38.55
17521;BME280;8878;-33.370;-70.552;2023-03-11T02:37:53;91876.31;;;26.68;38.86
17521;BME280;8878;-33.370;-70.552;2023-03-11T02:40:47;91882.28;;;26.84;37.79
17521;BME280;8878;-33.370;-70.552;2023-03-11T02:43:23;91880.59;;;26.69;38.04
17521;BME280;8878;-33.370;-70.552;2023-03-11T02:45:53;91885.22;;;26.68;37.89
17521;BME280;8878;-33.370;-70.552;2023-03-11T02:48:24;91893.75;;;26.70;38.47
17521;BME280;8878;-33.370;-70.552;2023-03-11T02:50:55;91895.72;;;26.73;37.61
17521;BME280;8878;-33.370;-70.552;2023-03-11T02:53:29;91888.59;;;26.25;37.17
17521;BME280;8878;-33.370;-70.552;2023-03-11T02:56:00;91884.72;;;26.56;38.35
17521;BME280;8878;-33.370;-70.552;2023-03-11T02:58:31;91880.72;;;26.83;38.33
17521;BME280;8878;-33.370;-70.552;2023-03-11T03:01:01;91888.72;;;26.69;39.14
17521;BME280;8878;-33.370;-70.552;2023-03-11T03:03:30;91889.00;;;26.60;38.77
17521;BME280;8878;-33.370;-70.552;2023-03-11T03:05:59;91887.63;;;26.40;39.78
17521;BME280;8878;-33.370;-70.552;2023-03-11T03:08:29;91897.78;;;26.50;39.51
17521;BME280;8878;-33.370;-70.552;2023-03-11T03:10:58;91897.41;;;26.51;39.48
17521;BME280;8878;-33.370;-70.552;2023-03-11T03:13:31;91893.44;;;26.42;39.34
17521;BME280;8878;-33.370;-70.552;2023-03-11T03:16:00;91893.47;;;26.45;39.21
17521;BME280;8878;-33.370;-70.552;2023-03-11T03:18:29;91891.19;;;26.47;39.25
17521;BME280;8878;-33.370;-70.552;2023-03-11T03:20:59;91891.13;;;26.44;38.94
17521;BME280;8878;-33.370;-70.552;2023-03-11T03:23:28;91899.47;;;26.28;39.18
17521;BME280;8878;-33.370;-70.552;2023-03-11T03:26:01;91882.31;;;26.50;38.66
17521;BME280;8878;-33.370;-70.552;2023-03-11T03:28:32;91889.53;;;26.36;39.56
17521;BME280;8878;-33.370;-70.552;2023-03-11T03:31:05;91880.66;;;26.09;40.67
17521;BME280;8878;-33.370;-70.552;2023-03-11T03:33:35;91879.84;;;26.05;40.73
17521;BME280;8878;-33.370;-70.552;2023-03-11T03:36:06;91884.00;;;25.99;40.09
17521;BME280;8878;-33.370;-70.552;2023-03-11T03:38:36;91889.44;;;26.02;40.13
17521;BME280;8878;-33.370;-70.552;2023-03-11T03:41:05;91877.50;;;26.03;39.87
17521;BME280;8878;-33.370;-70.552;2023-03-11T03:43:36;91883.78;;;26.11;39.01
17521;BME280;8878;-33.370;-70.552;2023-03-11T03:46:06;91872.44;;;26.02;39.68
17521;BME280;8878;-33.370;-70.552;2023-03-11T03:48:35;91878.25;;;26.00;40.80
17521;BME280;8878;-33.370;-70.552;2023-03-11T03:51:06;91871.22;;;25.96;41.08
17521;BME280;8878;-33.370;-70.552;2023-03-11T03:53:37;91876.19;;;25.90;40.90
17521;BME280;8878;-33.370;-70.552;2023-03-11T03:56:07;91877.28;;;25.86;41.24
17521;BME280;8878;-33.370;-70.552;2023-03-11T03:58:39;91876.44;;;25.82;41.68
17521;BME280;8878;-33.370;-70.552;2023-03-11T04:01:10;91876.63;;;25.96;41.24
17521;BME280;8878;-33.370;-70.552;2023-03-11T04:03:39;91875.03;;;25.91;41.16
17521;BME280;8878;-33.370;-70.552;2023-03-11T04:06:11;91876.59;;;25.92;41.32
17521;BME280;8878;-33.370;-70.552;2023-03-11T04:08:43;91872.69;;;25.90;41.90
17521;BME280;8878;-33.370;-70.552;2023-03-11T04:11:13;91876.53;;;25.89;41.34
17521;BME280;8878;-33.370;-70.552;2023-03-11T04:13:44;91884.97;;;25.84;41.62
17521;BME280;8878;-33.370;-70.552;2023-03-11T04:16:16;91879.50;;;25.80;42.15
17521;BME280;8878;-33.370;-70.552;2023-03-11T04:18:46;91876.31;;;25.71;42.75
17521;BME280;8878;-33.370;-70.552;2023-03-11T04:21:15;91874.31;;;25.68;42.29
17521;BME280;8878;-33.370;-70.552;2023-03-11T04:23:45;91874.50;;;25.79;42.70
17521;BME280;8878;-33.370;-70.552;2023-03-11T04:26:14;91889.13;;;25.78;41.94
17521;BME280;8878;-33.370;-70.552;2023-03-11T04:28:45;91880.56;;;25.72;41.40
17521;BME280;8878;-33.370;-70.552;2023-03-11T04:31:15;91883.75;;;25.55;41.91
17521;BME280;8878;-33.370;-70.552;2023-03-11T04:33:46;91885.25;;;25.52;41.77
17521;BME280;8878;-33.370;-70.552;2023-03-11T04:36:16;91882.88;;;25.73;40.57
17521;BME280;8878;-33.370;-70.552;2023-03-11T04:38:45;91881.13;;;25.85;41.63
17521;BME280;8878;-33.370;-70.552;2023-03-11T04:41:14;91884.44;;;25.74;41.38
17521;BME280;8878;-33.370;-70.552;2023-03-11T04:43:45;91875.31;;;25.56;41.33
17521;BME280;8878;-33.370;-70.552;2023-03-11T04:46:15;91888.28;;;25.47;40.88
17521;BME280;8878;-33.370;-70.552;2023-03-11T04:48:45;91885.47;;;25.63;41.37
17521;BME280;8878;-33.370;-70.552;2023-03-11T04:51:14;91888.53;;;25.61;41.18
17521;BME280;8878;-33.370;-70.552;2023-03-11T04:53:43;91886.19;;;25.60;41.58
17521;BME280;8878;-33.370;-70.552;2023-03-11T04:56:13;91880.91;;;25.44;41.86
17521;BME280;8878;-33.370;-70.552;2023-03-11T04:58:44;91879.72;;;25.42;41.45
17521;BME280;8878;-33.370;-70.552;2023-03-11T05:01:13;91882.00;;;25.40;42.02
17521;BME280;8878;-33.370;-70.552;2023-03-11T05:03:43;91882.91;;;25.24;42.69
17521;BME280;8878;-33.370;-70.552;2023-03-11T05:06:12;91870.28;;;25.06;43.21
17521;BME280;8878;-33.370;-70.552;2023-03-11T05:08:42;91871.75;;;25.26;41.92
17521;BME280;8878;-33.370;-70.552;2023-03-11T05:11:12;91869.31;;;25.17;42.74
17521;BME280;8878;-33.370;-70.552;2023-03-11T05:13:41;91867.84;;;25.23;42.26
17521;BME280;8878;-33.370;-70.552;2023-03-11T05:16:12;91864.91;;;25.32;42.03
17521;BME280;8878;-33.370;-70.552;2023-03-11T05:18:42;91866.28;;;25.22;41.73
17521;BME280;8878;-33.370;-70.552;2023-03-11T05:21:11;91863.19;;;25.20;42.14
17521;BME280;8878;-33.370;-70.552;2023-03-11T05:23:40;91861.28;;;25.21;41.70
17521;BME280;8878;-33.370;-70.552;2023-03-11T05:26:11;91855.81;;;25.17;42.38
17521;BME280;8878;-33.370;-70.552;2023-03-11T05:28:41;91862.34;;;25.16;42.55
17521;BME280;8878;-33.370;-70.552;2023-03-11T05:31:12;91851.66;;;25.23;42.47
17521;BME280;8878;-33.370;-70.552;2023-03-11T05:33:41;91849.50;;;25.10;42.90
17521;BME280;8878;-33.370;-70.552;2023-03-11T05:36:11;91849.97;;;25.15;42.98
17521;BME280;8878;-33.370;-70.552;2023-03-11T05:38:40;91849.13;;;25.08;42.83
17521;BME280;8878;-33.370;-70.552;2023-03-11T05:41:10;91849.28;;;25.18;42.46
17521;BME280;8878;-33.370;-70.552;2023-03-11T05:43:40;91846.41;;;25.08;42.95
17521;BME280;8878;-33.370;-70.552;2023-03-11T05:46:11;91851.28;;;24.99;43.22
17521;BME280;8878;-33.370;-70.552;2023-03-11T05:48:40;91854.28;;;24.93;43.39
17521;BME280;8878;-33.370;-70.552;2023-03-11T05:51:10;91843.66;;;25.04;42.69
17521;BME280;8878;-33.370;-70.552;2023-03-11T05:53:42;91841.31;;;25.03;42.37
17521;BME280;8878;-33.370;-70.552;2023-03-11T05:56:14;91844.31;;;24.98;42.41
17521;BME280;8878;-33.370;-70.552;2023-03-11T05:58:45;91842.41;;;24.98;42.76
17521;BME280;8878;-33.370;-70.552;2023-03-11T06:01:17;91831.66;;;25.02;43.07
17521;BME280;8878;-33.370;-70.552;2023-03-11T06:03:47;91834.28;;;24.75;42.86
17521;BME280;8878;-33.370;-70.552;2023-03-11T06:06:17;91825.06;;;24.76;42.45
17521;BME280;8878;-33.370;-70.552;2023-03-11T06:08:46;91831.78;;;24.86;42.45
17521;BME280;8878;-33.370;-70.552;2023-03-11T06:11:16;91832.97;;;24.88;42.95
17521;BME280;8878;-33.370;-70.552;2023-03-11T06:13:46;91831.94;;;24.74;43.93
17521;BME280;8878;-33.370;-70.552;2023-03-11T06:16:17;91827.22;;;24.67;44.25
17521;BME280;8878;-33.370;-70.552;2023-03-11T06:18:46;91832.00;;;24.54;44.40
17521;BME280;8878;-33.370;-70.552;2023-03-11T06:21:17;91827.88;;;24.61;43.66
17521;BME280;8878;-33.370;-70.552;2023-03-11T06:23:47;91835.13;;;24.56;43.85
17521;BME280;8878;-33.370;-70.552;2023-03-11T06:26:17;91832.22;;;24.65;43.78
17521;BME280;8878;-33.370;-70.552;2023-03-11T06:28:48;91837.75;;;24.53;43.69
17521;BME280;8878;-33.370;-70.552;2023-03-11T06:31:21;91836.50;;;24.47;44.09
17521;BME280;8878;-33.370;-70.552;2023-03-11T06:33:52;91829.78;;;24.60;44.11
17521;BME280;8878;-33.370;-70.552;2023-03-11T06:36:22;91827.56;;;24.66;43.91
17521;BME280;8878;-33.370;-70.552;2023-03-11T06:38:52;91829.53;;;24.46;44.32
17521;BME280;8878;-33.370;-70.552;2023-03-11T06:41:22;91826.31;;;24.37;44.66
17521;BME280;8878;-33.370;-70.552;2023-03-11T06:43:51;91831.75;;;24.40;44.40
17521;BME280;8878;-33.370;-70.552;2023-03-11T06:46:22;91824.03;;;24.39;44.26
17521;BME280;8878;-33.370;-70.552;2023-03-11T06:48:53;91821.28;;;24.35;45.09
17521;BME280;8878;-33.370;-70.552;2023-03-11T06:51:23;91835.78;;;24.50;44.91
17521;BME280;8878;-33.370;-70.552;2023-03-11T06:53:52;91824.94;;;24.46;44.28
17521;BME280;8878;-33.370;-70.552;2023-03-11T06:56:22;91827.41;;;24.55;44.11
17521;BME280;8878;-33.370;-70.552;2023-03-11T06:58:53;91828.53;;;24.54;43.76
17521;BME280;8878;-33.370;-70.552;2023-03-11T07:01:25;91824.88;;;24.43;44.00
17521;BME280;8878;-33.370;-70.552;2023-03-11T07:03:54;91831.88;;;24.47;43.61
17521;BME280;8878;-33.370;-70.552;2023-03-11T07:06:25;91827.97;;;24.45;43.55
17521;BME280;8878;-33.370;-70.552;2023-03-11T07:08:54;91826.84;;;24.46;43.71
17521;BME280;8878;-33.370;-70.552;2023-03-11T07:11:25;91825.59;;;24.40;44.19
17521;BME280;8878;-33.370;-70.552;2023-03-11T07:13:55;91831.72;;;24.37;44.40
17521;BME280;8878;-33.370;-70.552;2023-03-11T07:16:28;91836.59;;;24.31;44.12
17521;BME280;8878;-33.370;-70.552;2023-03-11T07:18:58;91828.66;;;24.19;44.28
17521;BME280;8878;-33.370;-70.552;2023-03-11T07:21:29;91828.31;;;24.21;44.51
17521;BME280;8878;-33.370;-70.552;2023-03-11T07:24:00;91831.41;;;24.03;43.87
17521;BME280;8878;-33.370;-70.552;2023-03-11T07:26:31;91822.97;;;24.05;44.19
17521;BME280;8878;-33.370;-70.552;2023-03-11T07:29:01;91825.75;;;24.08;45.09
17521;BME280;8878;-33.370;-70.552;2023-03-11T07:31:33;91825.75;;;24.08;44.58
17521;BME280;8878;-33.370;-70.552;2023-03-11T07:34:04;91823.34;;;24.03;44.54
17521;BME280;8878;-33.370;-70.552;2023-03-11T07:36:38;91823.06;;;24.08;44.30
17521;BME280;8878;-33.370;-70.552;2023-03-11T07:39:10;91830.28;;;24.04;44.68
17521;BME280;8878;-33.370;-70.552;2023-03-11T07:41:41;91832.84;;;23.97;44.64
17521;BME280;8878;-33.370;-70.552;2023-03-11T07:44:11;91823.19;;;23.96;45.33
17521;BME280;8878;-33.370;-70.552;2023-03-11T07:46:43;91819.50;;;24.04;45.16
17521;BME280;8878;-33.370;-70.552;2023-03-11T07:49:12;91825.97;;;23.80;45.31
17521;BME280;8878;-33.370;-70.552;2023-03-11T07:51:41;91826.63;;;23.93;44.85
17521;BME280;8878;-33.370;-70.552;2023-03-11T07:54:11;91823.41;;;23.88;45.17
17521;BME280;8878;-33.370;-70.552;2023-03-11T07:56:41;91822.19;;;24.04;44.40
17521;BME280;8878;-33.370;-70.552;2023-03-11T07:59:10;91829.56;;;23.88;44.52
17521;BME280;8878;-33.370;-70.552;2023-03-11T08:01:41;91832.56;;;23.83;45.10
17521;BME280;8878;-33.370;-70.552;2023-03-11T08:04:14;91828.94;;;23.95;44.28
17521;BME280;8878;-33.370;-70.552;2023-03-11T08:06:45;91832.69;;;24.09;43.96
17521;BME280;8878;-33.370;-70.552;2023-03-11T08:09:15;91835.97;;;23.99;43.99
17521;BME280;8878;-33.370;-70.552;2023-03-11T08:11:45;91840.00;;;23.90;44.19
17521;BME280;8878;-33.370;-70.552;2023-03-11T08:14:14;91837.59;;;23.85;44.90
17521;BME280;8878;-33.370;-70.552;2023-03-11T08:16:45;91833.53;;;23.75;44.65
17521;BME280;8878;-33.370;-70.552;2023-03-11T08:19:14;91834.69;;;23.74;44.96
17521;BME280;8878;-33.370;-70.552;2023-03-11T08:21:43;91828.75;;;23.84;44.73
17521;BME280;8878;-33.370;-70.552;2023-03-11T08:24:13;91836.69;;;23.77;44.26
17521;BME280;8878;-33.370;-70.552;2023-03-11T08:26:43;91832.41;;;23.76;44.77
17521;BME280;8878;-33.370;-70.552;2023-03-11T08:29:12;91833.00;;;23.85;45.19
17521;BME280;8878;-33.370;-70.552;2023-03-11T08:31:41;91842.47;;;23.60;45.23
17521;BME280;8878;-33.370;-70.552;2023-03-11T08:34:13;91844.75;;;23.58;45.07
17521;BME280;8878;-33.370;-70.552;2023-03-11T08:36:42;91837.22;;;23.67;44.63
17521;BME280;8878;-33.370;-70.552;2023-03-11T08:39:12;91840.22;;;23.62;44.76
17521;BME280;8878;-33.370;-70.552;2023-03-11T08:41:41;91843.81;;;23.50;45.36
17521;BME280;8878;-33.370;-70.552;2023-03-11T08:44:11;91844.81;;;23.46;45.83
17521;BME280;8878;-33.370;-70.552;2023-03-11T08:49:12;91850.06;;;23.38;46.04
17521;BME280;8878;-33.370;-70.552;2023-03-11T08:51:41;91844.16;;;23.49;45.34
17521;BME280;8878;-33.370;-70.552;2023-03-11T08:54:11;91845.78;;;23.53;45.76
17521;BME280;8878;-33.370;-70.552;2023-03-11T08:56:41;91853.88;;;23.53;45.76
17521;BME280;8878;-33.370;-70.552;2023-03-11T08:59:10;91857.19;;;23.31;46.16
17521;BME280;8878;-33.370;-70.552;2023-03-11T09:01:41;91855.72;;;23.33;46.07
17521;BME280;8878;-33.370;-70.552;2023-03-11T09:04:12;91865.94;;;23.43;45.82
17521;BME280;8878;-33.370;-70.552;2023-03-11T09:06:42;91862.81;;;23.41;45.76
17521;BME280;8878;-33.370;-70.552;2023-03-11T09:09:12;91867.13;;;23.62;44.92
17521;BME280;8878;-33.370;-70.552;2023-03-11T09:11:42;91870.22;;;23.45;45.09
17521;BME280;8878;-33.370;-70.552;2023-03-11T09:14:11;91867.25;;;23.50;45.66
17521;BME280;8878;-33.370;-70.552;2023-03-11T09:16:41;91860.75;;;23.35;46.71
17521;BME280;8878;-33.370;-70.552;2023-03-11T09:19:12;91865.06;;;23.39;46.49
17521;BME280;8878;-33.370;-70.552;2023-03-11T09:21:41;91869.00;;;23.26;46.34
17521;BME280;8878;-33.370;-70.552;2023-03-11T09:24:10;91869.34;;;23.25;46.33
17521;BME280;8878;-33.370;-70.552;2023-03-11T09:26:40;91867.09;;;23.27;46.36
17521;BME280;8878;-33.370;-70.552;2023-03-11T09:29:09;91870.25;;;23.29;46.67
17521;BME280;8878;-33.370;-70.552;2023-03-11T09:31:38;91876.94;;;23.19;47.39
17521;BME280;8878;-33.370;-70.552;2023-03-11T09:34:08;91873.38;;;23.15;47.12
17521;BME280;8878;-33.370;-70.552;2023-03-11T09:36:40;91874.13;;;23.31;46.06
17521;BME280;8878;-33.370;-70.552;2023-03-11T09:39:09;91878.97;;;23.41;46.11
17521;BME280;8878;-33.370;-70.552;2023-03-11T09:41:44;91872.03;;;23.40;45.44
17521;BME280;8878;-33.370;-70.552;2023-03-11T09:44:18;91881.34;;;23.27;45.27
17521;BME280;8878;-33.370;-70.552;2023-03-11T09:47:23;91886.72;;;23.43;45.95
17521;BME280;8878;-33.370;-70.552;2023-03-11T09:50:23;91887.69;;;23.19;46.19
17521;BME280;8878;-33.370;-70.552;2023-03-11T09:53:24;91893.06;;;23.35;45.92
17521;BME280;8878;-33.370;-70.552;2023-03-11T09:55:55;91903.47;;;23.36;46.10
17521;BME280;8878;-33.370;-70.552;2023-03-11T09:58:35;91906.50;;;23.35;46.26
17521;BME280;8878;-33.370;-70.552;2023-03-11T10:01:14;91905.47;;;23.39;45.56
17521;BME280;8878;-33.370;-70.552;2023-03-11T10:03:45;91916.34;;;23.27;46.18
17521;BME280;8878;-33.370;-70.552;2023-03-11T10:06:16;91915.22;;;23.28;46.18
17521;BME280;8878;-33.370;-70.552;2023-03-11T10:08:55;91925.78;;;23.37;45.22
17521;BME280;8878;-33.370;-70.552;2023-03-11T10:11:36;91930.13;;;23.41;45.09
17521;BME280;8878;-33.370;-70.552;2023-03-11T10:14:25;91932.72;;;23.54;44.49
17521;BME280;8878;-33.370;-70.552;2023-03-11T10:17:03;91938.41;;;23.49;44.94
17521;BME280;8878;-33.370;-70.552;2023-03-11T10:19:40;91940.72;;;23.19;45.27
17521;BME280;8878;-33.370;-70.552;2023-03-11T10:22:16;91947.31;;;22.90;46.37
17521;BME280;8878;-33.370;-70.552;2023-03-11T10:24:59;91947.84;;;22.80;46.59
17521;BME280;8878;-33.370;-70.552;2023-03-11T10:27:35;91948.44;;;22.89;46.21
17521;BME280;8878;-33.370;-70.552;2023-03-11T10:30:12;91954.78;;;22.96;45.48
17521;BME280;8878;-33.370;-70.552;2023-03-11T10:32:49;91951.56;;;22.91;45.87
17521;BME280;8878;-33.370;-70.552;2023-03-11T10:35:22;91951.84;;;22.86;45.99
17521;BME280;8878;-33.370;-70.552;2023-03-11T10:37:54;91959.72;;;22.79;46.11
17521;BME280;8878;-33.370;-70.552;2023-03-11T10:40:32;91965.44;;;22.77;45.91
17521;BME280;8878;-33.370;-70.552;2023-03-11T10:43:03;91969.44;;;22.83;45.43
17521;BME280;8878;-33.370;-70.552;2023-03-11T10:45:38;91976.03;;;22.86;45.76
17521;BME280;8878;-33.370;-70.552;2023-03-11T10:48:12;91988.19;;;22.80;46.12
17521;BME280;8878;-33.370;-70.552;2023-03-11T10:50:48;91996.19;;;22.92;46.26
17521;BME280;8878;-33.370;-70.552;2023-03-11T10:53:19;91999.81;;;22.84;46.24
17521;BME280;8878;-33.370;-70.552;2023-03-11T10:55:51;91998.16;;;22.79;46.30
17521;BME280;8878;-33.370;-70.552;2023-03-11T10:58:23;92003.53;;;22.79;46.68
17521;BME280;8878;-33.370;-70.552;2023-03-11T11:01:12;92001.97;;;22.78;46.98
17521;BME280;8878;-33.370;-70.552;2023-03-11T11:03:43;91998.50;;;22.78;47.07
17521;BME280;8878;-33.370;-70.552;2023-03-11T11:06:21;91999.81;;;22.84;46.32
17521;BME280;8878;-33.370;-70.552;2023-03-11T11:09:04;91998.72;;;22.73;47.31
17521;BME280;8878;-33.370;-70.552;2023-03-11T11:11:35;92005.00;;;22.77;46.76
17521;BME280;8878;-33.370;-70.552;2023-03-11T11:14:05;92008.22;;;22.82;46.75
17521;BME280;8878;-33.370;-70.552;2023-03-11T11:16:36;92011.19;;;22.93;46.96
17521;BME280;8878;-33.370;-70.552;2023-03-11T11:19:08;92011.13;;;23.05;46.29
17521;BME280;8878;-33.370;-70.552;2023-03-11T11:21:39;92016.44;;;23.17;45.92
17521;BME280;8878;-33.370;-70.552;2023-03-11T11:24:17;92015.56;;;23.13;45.74
17521;BME280;8878;-33.370;-70.552;2023-03-11T11:27:08;92009.41;;;23.13;45.31
17521;BME280;8878;-33.370;-70.552;2023-03-11T11:29:43;92015.91;;;23.12;45.57
17521;BME280;8878;-33.370;-70.552;2023-03-11T11:32:23;92017.66;;;23.20;45.43
17521;BME280;8878;-33.370;-70.552;2023-03-11T11:34:58;92022.59;;;23.33;44.74
17521;BME280;8878;-33.370;-70.552;2023-03-11T11:37:29;92021.38;;;23.31;44.80
17521;BME280;8878;-33.370;-70.552;2023-03-11T11:40:02;92028.09;;;23.37;44.35
17521;BME280;8878;-33.370;-70.552;2023-03-11T11:42:43;92034.72;;;23.55;44.23
17521;BME280;8878;-33.370;-70.552;2023-03-11T11:45:15;92035.50;;;23.56;44.66
17521;BME280;8878;-33.370;-70.552;2023-03-11T11:47:48;92029.16;;;23.64;44.04
17521;BME280;8878;-33.370;-70.552;2023-03-11T11:50:32;92034.72;;;23.71;43.80
17521;BME280;8878;-33.370;-70.552;2023-03-11T11:53:10;92038.25;;;23.43;44.80
17521;BME280;8878;-33.370;-70.552;2023-03-11T11:55:47;92034.00;;;23.42;44.50
17521;BME280;8878;-33.370;-70.552;2023-03-11T11:58:20;92041.63;;;23.40;44.35
17521;BME280;8878;-33.370;-70.552;2023-03-11T12:01:03;92040.41;;;23.38;44.14
17521;BME280;8878;-33.370;-70.552;2023-03-11T12:06:30;92050.78;;;23.83;42.43
17521;BME280;8878;-33.370;-70.552;2023-03-11T12:09:12;92061.66;;;23.55;43.11
17521;BME280;8878;-33.370;-70.552;2023-03-11T12:11:54;92066.34;;;23.58;42.78
17521;BME280;8878;-33.370;-70.552;2023-03-11T12:14:30;92075.06;;;23.39;43.28
17521;BME280;8878;-33.370;-70.552;2023-03-11T12:17:04;92079.50;;;23.04;43.86
17521;BME280;8878;-33.370;-70.552;2023-03-11T12:19:38;92079.88;;;23.18;43.94
17521;BME280;8878;-33.370;-70.552;2023-03-11T12:22:48;92093.38;;;23.34;43.63
17521;BME280;8878;-33.370;-70.552;2023-03-11T12:25:34;92094.06;;;23.31;43.74
17521;BME280;8878;-33.370;-70.552;2023-03-11T12:28:28;92104.50;;;23.32;43.62
17521;BME280;8878;-33.370;-70.552;2023-03-11T12:31:03;92102.88;;;23.43;43.86
17521;BME280;8878;-33.370;-70.552;2023-03-11T12:33:37;92096.88;;;23.07;45.13
17521;BME280;8878;-33.370;-70.552;2023-03-11T12:36:20;92099.69;;;23.69;44.04
17521;BME280;8878;-33.370;-70.552;2023-03-11T12:38:51;92101.69;;;23.88;43.29
17521;BME280;8878;-33.370;-70.552;2023-03-11T12:41:33;92100.56;;;23.89;43.40
17521;BME280;8878;-33.370;-70.552;2023-03-11T12:44:23;92104.38;;;24.04;43.15
17521;BME280;8878;-33.370;-70.552;2023-03-11T12:47:21;92106.91;;;23.81;43.64
17521;BME280;8878;-33.370;-70.552;2023-03-11T12:49:52;92108.22;;;23.87;42.96
17521;BME280;8878;-33.370;-70.552;2023-03-11T12:52:28;92106.94;;;24.47;41.98
17521;BME280;8878;-33.370;-70.552;2023-03-11T12:55:31;92104.72;;;24.02;43.05
17521;BME280;8878;-33.370;-70.552;2023-03-11T13:01:28;92109.53;;;23.93;43.50
17521;BME280;8878;-33.370;-70.552;2023-03-11T13:10:17;92122.28;;;24.98;41.55
17521;BME280;8878;-33.370;-70.552;2023-03-11T13:12:47;92114.66;;;24.84;41.57
17521;BME280;8878;-33.370;-70.552;2023-03-11T13:15:44;92112.31;;;24.28;42.43
17521;BME280;8878;-33.370;-70.552;2023-03-11T13:18:18;92116.34;;;24.38;43.06
17521;BME280;8878;-33.370;-70.552;2023-03-11T13:20:54;92112.50;;;24.74;41.68
17521;BME280;8878;-33.370;-70.552;2023-03-11T13:23:30;92118.97;;;24.34;41.07
17521;BME280;8878;-33.370;-70.552;2023-03-11T13:26:34;92120.78;;;24.46;42.09